Time;durP1;ratioP1;P1;durP2;ratioP2;P2;SDS_P1;SDS_P2;PMS_P1;PMS_P2;Temp;Humidity;BMP_temperature;BMP_pressure;BME280_temperature;BME280_humidity;BME280_pressure;Samples;Min_cycle;Max_cycle;Signal;HPM_P1;HPM_P2
2024/01/21 00:01:17;;;;;;;1999.90;999.90;;;0.20;99.90;;;;;;5019592;28;20037;-80
2024/01/21 00:03:42;;;;;;;1999.90;999.90;;;0.10;99.90;;;;;;5036774;28;20040;-80
2024/01/21 00:06:08;;;;;;;1999.90;999.90;;;0.40;99.90;;;;;;5019702;28;20117;-79
2024/01/21 00:08:34;;;;;;;1999.90;999.90;;;0.10;99.90;;;;;;5012073;28;20033;-79
2024/01/21 00:10:59;;;;;;;1999.90;999.90;;;0.10;99.90;;;;;;5019481;28;20053;-79
2024/01/21 00:13:25;;;;;;;1999.90;999.90;;;0.10;99.90;;;;;;5019061;28;20112;-79
2024/01/21 00:15:51;;;;;;;1999.90;999.90;;;0.20;99.90;;;;;;5019414;28;20033;-79
2024/01/21 00:18:17;;;;;;;1999.90;999.90;;;0.10;99.90;;;;;;5032584;28;20125;-80
2024/01/21 00:20:42;;;;;;;1999.90;999.90;;;0.20;99.90;;;;;;5033928;28;20034;-80
2024/01/21 00:23:08;;;;;;;1999.90;999.90;;;0.20;99.90;;;;;;5028938;28;20491;-80
2024/01/21 00:25:34;;;;;;;1999.90;999.90;;;0.20;99.90;;;;;;5017310;28;20044;-79
2024/01/21 00:28:00;;;;;;;1999.90;999.90;;;0.20;99.90;;;;;;5019533;28;20052;-80
2024/01/21 00:30:26;;;;;;;1999.90;999.90;;;0.20;99.90;;;;;;5024869;28;20392;-79
2024/01/21 00:32:52;;;;;;;1999.90;999.90;;;0.20;99.90;;;;;;5010348;28;20052;-78
2024/01/21 00:35:17;;;;;;;1999.90;999.90;;;0.20;99.90;;;;;;5031269;28;20531;-78
2024/01/21 00:37:43;;;;;;;1999.90;999.90;;;0.20;99.90;;;;;;5008699;28;20544;-79
2024/01/21 00:40:09;;;;;;;1999.90;999.90;;;0.20;99.90;;;;;;5029420;28;20052;-80
2024/01/21 00:42:35;;;;;;;1999.90;999.90;;;0.20;99.90;;;;;;5019136;28;20072;-80
2024/01/21 00:45:01;;;;;;;1999.90;999.90;;;0.10;99.90;;;;;;5029424;28;20037;-80
2024/01/21 00:47:27;;;;;;;1999.90;999.90;;;0.10;99.90;;;;;;5035489;28;20045;-80
2024/01/21 00:49:52;;;;;;;1999.90;999.90;;;0.10;99.90;;;;;;5015156;28;20044;-79
2024/01/21 00:52:18;;;;;;;1999.90;999.90;;;0.10;99.90;;;;;;5018790;28;20046;-80
2024/01/21 00:54:44;;;;;;;1999.90;999.90;;;0.10;99.90;;;;;;5036373;28;20060;-80
2024/01/21 00:57:10;;;;;;;1999.90;999.90;;;0.00;99.90;;;;;;5032085;28;20064;-79
2024/01/21 00:59:36;;;;;;;1999.90;999.90;;;0.30;99.90;;;;;;5019486;28;20445;-80
2024/01/21 01:02:01;;;;;;;1999.90;999.90;;;0.70;99.90;;;;;;5035567;28;20597;-80
2024/01/21 01:04:27;;;;;;;1999.90;999.90;;;0.10;99.90;;;;;;5035639;28;20053;-79
2024/01/21 01:06:53;;;;;;;1999.90;999.90;;;0.10;99.90;;;;;;5032111;28;20041;-79
2024/01/21 01:09:18;;;;;;;1999.90;999.90;;;0.10;99.90;;;;;;5019013;28;20517;-79
2024/01/21 01:11:44;;;;;;;1999.90;999.90;;;0.10;99.90;;;;;;5019461;28;20045;-80
2024/01/21 01:14:09;;;;;;;1999.90;999.90;;;0.20;99.90;;;;;;5035689;28;20038;-80
2024/01/21 01:16:39;;;;;;;1999.90;999.90;;;0.10;99.90;;;;;;5019003;28;20029;-80
2024/01/21 01:19:05;;;;;;;1999.90;999.90;;;0.20;99.90;;;;;;5014281;28;20049;-81
2024/01/21 01:21:31;;;;;;;1999.90;999.90;;;0.20;99.90;;;;;;5035449;28;20080;-79
2024/01/21 01:23:57;;;;;;;1999.90;999.90;;;0.20;99.90;;;;;;5019625;28;20120;-81
2024/01/21 01:26:23;;;;;;;1999.90;999.90;;;0.20;99.90;;;;;;5018983;28;20044;-79
2024/01/21 01:28:50;;;;;;;1999.90;999.90;;;0.20;99.90;;;;;;5035660;28;20030;-81
2024/01/21 01:31:19;;;;;;;1999.90;999.90;;;0.20;99.90;;;;;;5036108;28;20033;-81
2024/01/21 01:33:46;;;;;;;1999.90;999.90;;;0.30;99.90;;;;;;5019260;28;20099;-80
2024/01/21 01:36:12;;;;;;;1999.90;999.90;;;0.30;99.90;;;;;;5025441;28;20039;-80
2024/01/21 01:38:37;;;;;;;1999.90;999.90;;;0.30;99.90;;;;;;5036793;28;20029;-79
2024/01/21 01:41:04;;;;;;;1999.90;999.90;;;0.30;99.90;;;;;;5018329;28;20132;-79
2024/01/21 01:43:29;;;;;;;1999.90;999.90;;;0.30;99.90;;;;;;5034048;28;20038;-80
2024/01/21 01:45:56;;;;;;;1999.90;999.90;;;0.30;99.90;;;;;;5034137;28;20025;-80
2024/01/21 01:48:22;;;;;;;1999.90;999.90;;;1.30;99.90;;;;;;5029878;28;20071;-80
2024/01/21 01:50:49;;;;;;;1781.47;816.05;;;0.40;99.90;;;;;;5014508;28;20391;-79
2024/01/21 01:53:16;;;;;;;1999.90;905.50;;;1.70;99.90;;;;;;5018899;28;20137;-80
2024/01/21 01:55:43;;;;;;;1999.90;989.70;;;0.40;99.90;;;;;;5017152;28;20120;-79
2024/01/21 01:58:08;;;;;;;1999.90;999.90;;;1.20;99.90;;;;;;5025540;28;20045;-80
2024/01/21 02:00:34;;;;;;;1999.90;911.72;;;0.50;99.90;;;;;;5020428;28;20041;-79
2024/01/21 02:02:59;;;;;;;1999.90;999.90;;;0.50;99.90;;;;;;5019540;28;20053;-79
2024/01/21 02:05:25;;;;;;;1999.90;999.90;;;0.50;99.90;;;;;;5032074;28;20057;-80
2024/01/21 02:07:51;;;;;;;1999.90;999.90;;;1.30;99.90;;;;;;5036077;28;20122;-79
2024/01/21 02:10:16;;;;;;;1999.90;999.90;;;0.80;99.90;;;;;;5020306;28;20307;-79
2024/01/21 02:12:45;;;;;;;1999.90;999.90;;;0.50;99.90;;;;;;5018721;28;20076;-79
2024/01/21 02:15:14;;;;;;;1999.90;999.90;;;0.50;99.90;;;;;;5017923;28;20060;-79
2024/01/21 02:17:40;;;;;;;1999.90;999.90;;;0.50;99.90;;;;;;5033168;28;20109;-80
2024/01/21 02:20:07;;;;;;;1999.90;999.90;;;0.50;99.90;;;;;;5030052;28;20046;-80
2024/01/21 02:22:37;;;;;;;1999.90;873.08;;;0.50;99.90;;;;;;5037249;28;20041;-79
2024/01/21 02:25:02;;;;;;;1999.90;999.90;;;0.50;99.90;;;;;;5035781;28;20045;-79
2024/01/21 02:27:28;;;;;;;1999.90;999.90;;;0.50;99.90;;;;;;5034988;28;20187;-80
2024/01/21 02:29:53;;;;;;;1999.90;999.90;;;0.40;99.90;;;;;;5018730;28;20033;-79
2024/01/21 02:32:19;;;;;;;1999.90;999.90;;;0.40;99.90;;;;;;5017159;28;20033;-80
2024/01/21 02:34:45;;;;;;;1999.90;999.90;;;0.40;99.90;;;;;;5018528;28;20072;-79
2024/01/21 02:37:11;;;;;;;1999.90;999.90;;;0.40;99.90;;;;;;5016329;28;20605;-80
2024/01/21 02:39:36;;;;;;;1999.90;999.90;;;0.40;99.90;;;;;;5034043;28;20029;-79
2024/01/21 02:42:02;;;;;;;1999.90;999.90;;;0.40;99.90;;;;;;5033092;28;20042;-80
2024/01/21 02:44:28;;;;;;;1999.90;999.90;;;0.40;99.90;;;;;;5017007;28;20068;-80
2024/01/21 02:46:53;;;;;;;1999.90;999.90;;;0.40;99.90;;;;;;5016457;28;20624;-79
2024/01/21 02:49:21;;;;;;;1999.90;999.90;;;0.40;99.90;;;;;;5013485;28;20034;-79
2024/01/21 02:51:46;;;;;;;1999.90;999.90;;;0.40;99.90;;;;;;5027096;28;20044;-80
2024/01/21 02:54:12;;;;;;;1999.90;999.90;;;0.30;99.90;;;;;;5033760;28;20111;-80
2024/01/21 02:56:38;;;;;;;1999.90;999.90;;;0.40;99.90;;;;;;5019997;28;20021;-79
2024/01/21 02:59:03;;;;;;;1999.90;999.90;;;0.40;99.90;;;;;;5015978;28;20037;-79
2024/01/21 03:01:29;;;;;;;1999.90;999.90;;;0.40;99.90;;;;;;5037176;28;20056;-80
2024/01/21 03:03:55;;;;;;;1999.90;999.90;;;0.40;99.90;;;;;;5021152;28;20030;-79
2024/01/21 03:06:21;;;;;;;1999.90;999.90;;;0.40;99.90;;;;;;5028316;28;20107;-80
2024/01/21 03:08:46;;;;;;;1999.90;999.90;;;0.50;99.90;;;;;;5036790;28;20041;-79
2024/01/21 03:11:12;;;;;;;1999.90;999.90;;;1.90;99.90;;;;;;5037021;28;20065;-79
2024/01/21 03:13:38;;;;;;;1999.90;999.90;;;0.50;99.90;;;;;;5036706;28;20521;-79
2024/01/21 03:16:03;;;;;;;1999.90;999.90;;;0.50;99.90;;;;;;5034055;28;20521;-80
2024/01/21 03:18:29;;;;;;;1999.90;999.90;;;0.60;99.90;;;;;;5020928;28;20060;-79
2024/01/21 03:20:54;;;;;;;1999.90;999.90;;;0.50;99.90;;;;;;5018056;28;20044;-80
2024/01/21 03:23:20;;;;;;;1999.90;999.90;;;0.50;99.90;;;;;;5036823;28;20041;-80
2024/01/21 03:25:46;;;;;;;1999.90;999.90;;;0.50;99.90;;;;;;5038681;28;20034;-79
2024/01/21 03:28:12;;;;;;;1999.90;999.90;;;0.50;99.90;;;;;;5035552;28;20065;-80
2024/01/21 03:30:39;;;;;;;1999.90;999.90;;;0.50;99.90;;;;;;5018062;28;20041;-79
2024/01/21 03:33:04;;;;;;;1999.90;999.90;;;0.50;99.90;;;;;;5020416;28;20116;-80
2024/01/21 03:35:30;;;;;;;1999.90;999.90;;;0.50;99.90;;;;;;5019536;28;20065;-79
2024/01/21 03:37:56;;;;;;;1999.90;999.90;;;0.60;99.90;;;;;;5036644;28;20036;-80
2024/01/21 03:40:21;;;;;;;1999.90;999.90;;;0.60;99.90;;;;;;5021965;28;20042;-80
2024/01/21 03:42:47;;;;;;;1999.90;999.90;;;0.60;99.90;;;;;;5036745;28;20041;-79
2024/01/21 03:45:13;;;;;;;1999.90;999.90;;;0.60;99.90;;;;;;5011898;28;20336;-80
2024/01/21 03:47:39;;;;;;;1999.90;999.90;;;0.60;99.90;;;;;;5016134;28;20595;-80
2024/01/21 03:50:05;;;;;;;1999.90;999.90;;;0.60;99.90;;;;;;5024636;28;20045;-80
2024/01/21 03:52:31;;;;;;;1999.90;999.90;;;0.60;99.90;;;;;;5019156;28;20041;-80
2024/01/21 03:54:57;;;;;;;1999.90;999.90;;;0.60;99.90;;;;;;5015148;28;20037;-79
2024/01/21 03:57:22;;;;;;;1999.90;999.90;;;0.50;99.90;;;;;;5018768;28;20409;-80
2024/01/21 03:59:48;;;;;;;1999.90;999.90;;;0.50;99.90;;;;;;5019254;28;20099;-80
2024/01/21 04:02:13;;;;;;;1999.90;999.90;;;0.50;99.90;;;;;;5035812;28;20569;-79
2024/01/21 04:04:39;;;;;;;1999.90;999.90;;;0.40;99.90;;;;;;5024939;28;20411;-79
2024/01/21 04:07:05;;;;;;;1999.90;999.90;;;0.50;99.90;;;;;;5036825;28;20105;-80
2024/01/21 04:09:31;;;;;;;1999.90;999.90;;;0.40;99.90;;;;;;5035598;28;20461;-80
2024/01/21 04:11:56;;;;;;;1999.90;999.90;;;0.50;99.90;;;;;;5019440;28;20060;-80
2024/01/21 04:14:22;;;;;;;1999.90;999.90;;;0.40;99.90;;;;;;5022121;28;20474;-79
2024/01/21 04:16:47;;;;;;;1999.90;999.90;;;0.40;99.90;;;;;;5019116;28;20037;-79
2024/01/21 04:19:16;;;;;;;1999.90;999.90;;;0.40;99.90;;;;;;5019186;28;20037;-80
2024/01/21 04:21:45;;;;;;;1999.90;999.90;;;0.30;99.90;;;;;;5019393;28;20037;-80
2024/01/21 04:24:10;;;;;;;1999.90;999.90;;;0.40;99.90;;;;;;5015821;28;20402;-80
2024/01/21 04:26:36;;;;;;;1999.90;999.90;;;0.40;99.90;;;;;;5033148;28;20037;-80
2024/01/21 04:29:02;;;;;;;1999.90;999.90;;;0.40;99.90;;;;;;5036145;28;20051;-81
2024/01/21 04:31:27;;;;;;;1999.90;999.90;;;0.50;99.90;;;;;;5035354;28;20477;-79
2024/01/21 04:33:53;;;;;;;1999.90;999.90;;;0.60;99.90;;;;;;5017950;28;20045;-79
2024/01/21 04:36:19;;;;;;;1999.90;999.90;;;0.60;99.90;;;;;;5038744;28;20052;-80
2024/01/21 04:38:48;;;;;;;1999.90;999.90;;;0.60;99.90;;;;;;5018733;28;20148;-80
2024/01/21 04:41:14;;;;;;;1999.90;999.90;;;0.70;99.90;;;;;;5018596;28;20068;-80
2024/01/21 04:43:40;;;;;;;1999.90;999.90;;;0.70;99.90;;;;;;5018696;28;20038;-79
2024/01/21 04:46:06;;;;;;;1999.90;999.90;;;0.70;99.90;;;;;;5017575;28;20034;-79
2024/01/21 04:48:32;;;;;;;1999.90;999.90;;;0.70;99.90;;;;;;5017528;28;20037;-80
2024/01/21 04:50:58;;;;;;;1999.90;999.90;;;0.70;99.90;;;;;;5017189;28;20033;-80
2024/01/21 04:53:23;;;;;;;1999.90;999.90;;;0.70;99.90;;;;;;5033960;28;20305;-80
2024/01/21 04:55:49;;;;;;;1999.90;999.90;;;0.70;99.90;;;;;;5029664;28;20038;-78
2024/01/21 04:58:15;;;;;;;1999.90;999.90;;;0.80;99.90;;;;;;5020024;28;20033;-80
2024/01/21 05:00:40;;;;;;;1999.90;999.90;;;0.80;99.90;;;;;;5035050;28;20038;-79
2024/01/21 05:03:06;;;;;;;1999.90;999.90;;;0.80;99.90;;;;;;5017676;28;20079;-80
2024/01/21 05:05:32;;;;;;;1999.90;999.90;;;0.80;99.90;;;;;;5030221;28;20041;-78
2024/01/21 05:07:58;;;;;;;1999.90;999.90;;;0.90;99.90;;;;;;5034061;28;20056;-80
2024/01/21 05:10:24;;;;;;;1999.90;999.90;;;0.90;99.90;;;;;;5034172;28;20045;-80
2024/01/21 05:12:50;;;;;;;1999.90;999.90;;;0.80;99.90;;;;;;5034790;28;20402;-81
2024/01/21 05:15:15;;;;;;;1999.90;999.90;;;0.90;99.90;;;;;;5033951;28;20079;-80
2024/01/21 05:17:41;;;;;;;1999.90;999.90;;;0.90;99.90;;;;;;5033859;28;20518;-79
2024/01/21 05:20:08;;;;;;;1999.90;999.90;;;0.90;99.90;;;;;;5033279;28;20056;-80
2024/01/21 05:22:34;;;;;;;1999.90;999.90;;;0.90;99.90;;;;;;5016317;28;20038;-79
2024/01/21 05:25:00;;;;;;;1999.90;999.90;;;1.70;99.90;;;;;;5033018;28;20062;-80
2024/01/21 05:27:26;;;;;;;1999.90;999.90;;;0.90;99.90;;;;;;5034168;28;20284;-79
2024/01/21 05:29:51;;;;;;;1999.90;999.90;;;0.90;99.90;;;;;;5017357;28;20045;-79
2024/01/21 05:32:17;;;;;;;1999.90;999.90;;;0.80;99.90;;;;;;5017814;28;20029;-80
2024/01/21 05:34:43;;;;;;;1999.90;999.90;;;0.80;99.90;;;;;;5013010;28;20060;-80
2024/01/21 05:37:08;;;;;;;1999.90;999.90;;;0.80;99.90;;;;;;5033920;28;20037;-79
2024/01/21 05:39:34;;;;;;;1999.90;999.90;;;0.80;99.90;;;;;;5018812;28;20415;-79
2024/01/21 05:42:04;;;;;;;1999.90;999.90;;;1.30;99.90;;;;;;5018158;28;20084;-79
2024/01/21 05:44:30;;;;;;;1999.90;999.90;;;0.90;99.90;;;;;;5034777;28;20033;-81
2024/01/21 05:46:56;;;;;;;1999.90;999.90;;;1.00;99.90;;;;;;5017847;28;20080;-80
2024/01/21 05:49:23;;;;;;;1999.90;999.90;;;1.00;99.90;;;;;;5013465;28;20038;-79
2024/01/21 05:51:49;;;;;;;1999.90;999.90;;;1.00;99.90;;;;;;5034212;28;20191;-79
2024/01/21 05:54:14;;;;;;;1999.90;999.90;;;2.00;99.90;;;;;;5010441;28;20072;-79
2024/01/21 05:56:40;;;;;;;1999.90;999.90;;;2.20;99.90;;;;;;5033258;28;20116;-79
2024/01/21 05:59:06;;;;;;;1999.90;999.90;;;1.00;99.90;;;;;;5034289;28;20049;-80
2024/01/21 06:01:31;;;;;;;1999.90;999.90;;;1.10;99.90;;;;;;5034098;28;20045;-79
2024/01/21 06:03:57;;;;;;;1999.90;999.90;;;1.20;99.90;;;;;;5028949;28;20038;-80
2024/01/21 06:06:22;;;;;;;1999.90;999.90;;;1.20;99.90;;;;;;5017614;28;20037;-79
2024/01/21 06:08:48;;;;;;;1999.90;999.90;;;1.20;99.90;;;;;;5033848;28;20045;-79
2024/01/21 06:11:14;;;;;;;1999.90;999.90;;;1.20;99.90;;;;;;5017044;28;20449;-80
2024/01/21 06:13:39;;;;;;;1999.90;999.90;;;1.30;99.90;;;;;;5036594;28;20041;-79
2024/01/21 06:16:05;;;;;;;1999.90;999.90;;;1.30;99.90;;;;;;5036820;28;20075;-80
2024/01/21 06:18:31;;;;;;;1999.90;999.90;;;1.30;99.90;;;;;;5013138;28;20044;-79
2024/01/21 06:20:59;;;;;;;1999.90;999.90;;;1.30;99.90;;;;;;5017319;28;20065;-79
2024/01/21 06:23:24;;;;;;;1999.90;999.90;;;1.20;99.90;;;;;;5033412;28;20048;-80
2024/01/21 06:25:50;;;;;;;1999.90;999.90;;;1.30;99.90;;;;;;5033910;28;20064;-79
2024/01/21 06:28:21;;;;;;;1999.90;999.90;;;1.30;99.90;;;;;;5034003;28;20037;-80
2024/01/21 06:30:50;;;;;;;1999.90;999.90;;;1.30;99.90;;;;;;5021295;28;20033;-80
2024/01/21 06:33:17;;;;;;;1999.90;999.90;;;1.30;99.90;;;;;;5036609;28;20401;-81
2024/01/21 06:35:42;;;;;;;1999.90;999.90;;;1.30;99.90;;;;;;5018749;28;20137;-80
2024/01/21 06:38:08;;;;;;;1999.90;999.90;;;1.30;99.90;;;;;;5017570;28;20296;-79
2024/01/21 06:40:33;;;;;;;1999.90;999.90;;;1.30;99.90;;;;;;5037767;28;20074;-81
2024/01/21 06:42:59;;;;;;;1999.90;999.90;;;1.30;99.90;;;;;;5037834;28;20057;-80
2024/01/21 06:45:28;;;;;;;1999.90;999.90;;;1.40;99.90;;;;;;5020427;28;20041;-80
2024/01/21 06:47:53;;;;;;;1999.90;999.90;;;1.40;99.90;;;;;;5048402;28;20060;-80
2024/01/21 06:50:21;;;;;;;1999.90;999.90;;;1.40;99.90;;;;;;5020778;28;20041;-79
2024/01/21 06:52:46;;;;;;;1999.90;999.90;;;2.40;99.90;;;;;;5022307;28;20033;-78
2024/01/21 06:55:13;;;;;;;1999.90;999.90;;;1.40;99.90;;;;;;5025094;28;20555;-78
2024/01/21 06:57:39;;;;;;;1999.90;999.90;;;1.40;99.90;;;;;;5040262;28;20037;-79
2024/01/21 07:00:06;;;;;;;1999.90;999.90;;;1.40;99.90;;;;;;5024468;28;20120;-78
2024/01/21 07:02:32;;;;;;;1999.90;999.90;;;1.30;99.90;;;;;;5026806;28;20041;-79
2024/01/21 07:04:58;;;;;;;1999.90;999.90;;;1.40;99.90;;;;;;5029319;28;20531;-80
2024/01/21 07:07:23;;;;;;;1999.90;999.90;;;1.40;99.90;;;;;;5029073;28;20038;-80
2024/01/21 07:09:52;;;;;;;1999.90;999.90;;;2.10;99.90;;;;;;5045372;28;20048;-79
2024/01/21 07:12:17;;;;;;;1999.90;999.90;;;1.40;99.90;;;;;;5026596;28;20498;-79
2024/01/21 07:14:43;;;;;;;1999.90;999.90;;;1.40;99.90;;;;;;5025805;28;20048;-78
2024/01/21 07:17:10;;;;;;;1999.90;999.90;;;1.50;99.90;;;;;;5039938;28;20141;-79
2024/01/21 07:19:35;;;;;;;1999.90;999.90;;;1.50;99.90;;;;;;5022761;28;20273;-78
2024/01/21 07:22:01;;;;;;;1999.90;999.90;;;1.50;99.90;;;;;;5035332;28;20045;-79
2024/01/21 07:24:26;;;;;;;1999.90;999.90;;;1.80;99.90;;;;;;5039505;28;20042;-80
2024/01/21 07:26:52;;;;;;;1999.90;999.90;;;1.40;99.90;;;;;;5025048;28;20033;-78
2024/01/21 07:29:18;;;;;;;1999.90;999.90;;;1.40;99.90;;;;;;5042104;28;20128;-79
2024/01/21 07:31:43;;;;;;;1999.90;999.90;;;1.40;99.90;;;;;;5023973;28;20105;-79
2024/01/21 07:34:09;;;;;;;1999.90;999.90;;;1.50;99.90;;;;;;5040208;28;20106;-81
2024/01/21 07:36:35;;;;;;;1999.90;999.90;;;1.50;99.90;;;;;;5042181;28;20494;-79
2024/01/21 07:39:04;;;;;;;1999.90;999.90;;;1.40;99.90;;;;;;5043977;28;20045;-79
2024/01/21 07:41:30;;;;;;;1999.90;999.90;;;1.40;99.90;;;;;;5043532;28;20041;-79
2024/01/21 07:43:56;;;;;;;1999.90;999.90;;;1.40;99.90;;;;;;5022762;28;20037;-78
2024/01/21 07:46:21;;;;;;;1999.90;999.90;;;1.50;99.90;;;;;;5036834;28;20125;-81
2024/01/21 07:48:48;;;;;;;1999.90;999.90;;;1.40;99.90;;;;;;5027740;28;20042;-82
2024/01/21 07:51:16;;;;;;;1999.90;999.90;;;1.40;99.90;;;;;;5025641;28;20568;-82
2024/01/21 07:53:41;;;;;;;1999.90;999.90;;;1.00;99.90;;;;;;5038346;28;20057;-82
2024/01/21 07:56:07;;;;;;;1999.90;999.90;;;1.40;99.90;;;;;;5030282;28;20034;-82
2024/01/21 07:58:32;;;;;;;1999.90;999.90;;;1.40;99.90;;;;;;5022952;28;20203;-81
2024/01/21 08:00:58;;;;;;;1999.90;999.90;;;2.40;99.90;;;;;;5042446;28;20548;-81
2024/01/21 08:03:24;;;;;;;1999.90;999.90;;;1.40;99.90;;;;;;5058612;28;20052;-81
2024/01/21 08:05:49;;;;;;;1999.90;999.90;;;1.50;99.90;;;;;;5023852;28;20116;-81
2024/01/21 08:08:15;;;;;;;1999.90;999.90;;;1.70;99.90;;;;;;5022220;28;20038;-81
2024/01/21 08:10:41;;;;;;;1999.90;999.90;;;1.50;99.90;;;;;;5041706;28;20081;-81
2024/01/21 08:13:07;;;;;;;1999.90;999.90;;;2.80;99.90;;;;;;5035863;28;20379;-80
2024/01/21 08:15:33;;;;;;;1999.90;999.90;;;1.50;99.90;;;;;;5044808;28;20057;-80
2024/01/21 08:17:59;;;;;;;1999.90;999.90;;;1.60;99.90;;;;;;5043403;28;20029;-82
2024/01/21 08:20:25;;;;;;;1999.90;999.90;;;1.50;99.90;;;;;;5027489;28;20033;-80
2024/01/21 08:22:50;;;;;;;1999.90;999.90;;;1.50;99.90;;;;;;5026224;28;20100;-81
2024/01/21 08:25:16;;;;;;;1999.90;999.90;;;1.60;99.90;;;;;;5047271;28;20037;-81
2024/01/21 08:27:42;;;;;;;1999.90;999.90;;;2.70;99.90;;;;;;5026266;28;20128;-82
2024/01/21 08:30:08;;;;;;;1999.90;999.90;;;1.60;99.90;;;;;;5027558;28;20160;-81
2024/01/21 08:32:34;;;;;;;1999.90;999.90;;;1.70;99.90;;;;;;5026250;28;20041;-81
2024/01/21 08:35:00;;;;;;;1999.90;999.90;;;1.60;99.90;;;;;;5038678;28;20117;-81
2024/01/21 08:37:26;;;;;;;1999.90;999.90;;;2.60;99.90;;;;;;5041579;28;20033;-82
2024/01/21 08:39:51;;;;;;;1999.90;999.90;;;1.80;99.90;;;;;;5036672;28;20045;-83
2024/01/21 08:42:19;;;;;;;1999.90;999.90;;;2.90;99.90;;;;;;5024190;28;20037;-82
2024/01/21 08:44:45;;;;;;;1999.90;999.90;;;1.90;99.90;;;;;;5024975;28;20041;-83
2024/01/21 08:47:10;;;;;;;1999.90;999.90;;;2.50;99.90;;;;;;5028485;28;20049;-83
2024/01/21 08:49:36;;;;;;;1999.90;999.90;;;1.80;99.90;;;;;;5024080;28;20065;-81
2024/01/21 08:52:02;;;;;;;1999.90;999.90;;;2.20;99.90;;;;;;5024499;28;20033;-83
2024/01/21 08:54:28;;;;;;;1999.90;999.90;;;1.70;99.90;;;;;;5040564;28;20076;-83
2024/01/21 08:56:54;;;;;;;1999.90;999.90;;;1.70;99.90;;;;;;5023982;28;20040;-81
2024/01/21 08:59:19;;;;;;;1999.90;999.90;;;1.80;99.90;;;;;;5026141;28;20037;-82
2024/01/21 09:01:45;;;;;;;1999.90;999.90;;;1.80;99.90;;;;;;5024637;28;20033;-82
2024/01/21 09:04:15;;;;;;;1999.90;999.90;;;1.90;99.90;;;;;;5024649;28;20095;-81
2024/01/21 09:06:41;;;;;;;1999.90;999.90;;;2.00;99.90;;;;;;5015722;28;20046;-81
2024/01/21 09:09:11;;;;;;;1999.90;999.90;;;2.10;99.90;;;;;;5048762;28;20128;-80
2024/01/21 09:11:40;;;;;;;1999.90;999.90;;;2.90;99.90;;;;;;5026994;28;20049;-82
2024/01/21 09:14:07;;;;;;;1999.90;999.90;;;2.20;99.90;;;;;;5025743;28;20059;-79
2024/01/21 09:16:33;;;;;;;1999.90;999.90;;;2.30;99.90;;;;;;5041476;28;20083;-82
2024/01/21 09:19:00;;;;;;;1999.90;999.90;;;2.30;99.90;;;;;;5019356;28;20045;-79
2024/01/21 09:21:25;;;;;;;1999.90;999.90;;;3.20;99.90;;;;;;5020840;28;20159;-80
2024/01/21 09:23:55;;;;;;;1999.90;999.90;;;2.30;99.90;;;;;;5026413;28;20069;-82
2024/01/21 09:26:21;;;;;;;1999.90;999.90;;;3.60;99.90;;;;;;5016978;28;20445;-80
2024/01/21 09:28:46;;;;;;;1999.90;999.90;;;2.30;99.90;;;;;;5023552;28;20030;-81
2024/01/21 09:31:12;;;;;;;1999.90;999.90;;;2.40;99.90;;;;;;5016465;28;20500;-84
2024/01/21 09:33:38;;;;;;;1999.90;999.90;;;2.40;99.90;;;;;;5040883;28;20033;-82
2024/01/21 09:36:04;;;;;;;1999.90;999.90;;;2.50;99.90;;;;;;5022184;28;20052;-84
2024/01/21 09:38:29;;;;;;;1999.90;999.90;;;2.50;99.90;;;;;;5022758;28;20041;-81
2024/01/21 09:41:02;;;;;;;1999.90;999.90;;;3.70;99.90;;;;;;5038326;28;20537;-81
2024/01/21 09:43:29;;;;;;;1999.90;999.90;;;2.60;99.90;;;;;;5035684;28;20494;-79
2024/01/21 09:45:57;;;;;;;1999.90;999.90;;;2.70;99.90;;;;;;5021077;28;20310;-82
2024/01/21 09:48:23;;;;;;;1999.90;999.90;;;2.70;99.90;;;;;;5023548;28;20049;-82
2024/01/21 09:50:51;;;;;;;1999.90;999.90;;;2.70;99.90;;;;;;5023839;28;20069;-81
2024/01/21 09:53:16;;;;;;;1999.90;999.90;;;2.70;99.90;;;;;;5026936;28;20037;-82
2024/01/21 09:55:42;;;;;;;1999.90;999.90;;;2.80;99.90;;;;;;5016974;28;20045;-79
2024/01/21 09:58:14;;;;;;;1999.90;999.90;;;2.80;99.90;;;;;;5016332;28;20587;-78
2024/01/21 10:00:41;;;;;;;1999.90;999.90;;;2.70;99.90;;;;;;5030691;28;20124;-83
2024/01/21 10:03:07;;;;;;;1999.90;999.90;;;3.60;99.90;;;;;;5035751;28;20592;-79
2024/01/21 10:05:32;;;;;;;1999.90;999.90;;;2.70;99.90;;;;;;5019816;28;20037;-78
2024/01/21 10:07:58;;;;;;;1999.90;999.90;;;2.70;99.90;;;;;;5023751;28;20060;-84
2024/01/21 10:10:24;;;;;;;1999.90;999.90;;;2.70;99.90;;;;;;5035418;28;20033;-84
2024/01/21 10:12:51;;;;;;;1999.90;999.90;;;3.70;99.90;;;;;;5039309;28;20057;-82
2024/01/21 10:15:18;;;;;;;1999.90;999.90;;;4.00;99.90;;;;;;5030904;28;20121;-80
2024/01/21 10:17:46;;;;;;;1999.90;999.90;;;3.60;99.90;;;;;;5057033;28;20071;-88
2024/01/21 10:20:15;;;;;;;1999.90;999.90;;;3.10;99.90;;;;;;5032710;28;20041;-84
2024/01/21 10:22:41;;;;;;;1999.90;999.90;;;3.10;99.90;;;;;;5035823;28;20095;-85
2024/01/21 10:25:09;;;;;;;1999.90;999.90;;;3.10;99.90;;;;;;5039251;28;20498;-84
2024/01/21 10:27:34;;;;;;;1999.90;999.90;;;3.10;99.90;;;;;;5032801;28;20061;-81
2024/01/21 10:30:00;;;;;;;1999.90;999.90;;;4.20;99.90;;;;;;5049826;28;20040;-83
2024/01/21 10:32:27;;;;;;;1999.90;999.90;;;3.20;99.90;;;;;;5034378;28;20414;-83
2024/01/21 10:34:52;;;;;;;1999.90;999.90;;;2.30;99.90;;;;;;5045203;28;21106;-85
2024/01/21 10:37:22;;;;;;;1999.90;999.90;;;3.90;99.90;;;;;;5050672;28;20133;-84
2024/01/21 10:39:48;;;;;;;1999.90;999.90;;;4.70;99.90;;;;;;5031346;28;20128;-84
2024/01/21 10:42:14;;;;;;;1999.90;999.90;;;4.60;99.90;;;;;;5033987;28;20416;-82
2024/01/21 10:44:40;;;;;;;1999.90;999.90;;;4.50;99.90;;;;;;5034302;28;20124;-82
2024/01/21 10:47:08;;;;;;;1999.90;999.90;;;4.00;99.90;;;;;;5031136;28;20064;-82
2024/01/21 10:49:34;;;;;;;1999.90;999.90;;;4.70;99.90;;;;;;5031960;28;20060;-83
2024/01/21 10:52:00;;;;;;;1999.90;999.90;;;3.50;99.90;;;;;;5030764;28;20037;-83
2024/01/21 10:54:27;;;;;;;1999.90;999.90;;;4.60;99.90;;;;;;5032631;28;20033;-87
2024/01/21 10:56:53;;;;;;;1999.90;999.90;;;3.50;99.90;;;;;;5027345;28;20386;-81
2024/01/21 10:59:20;;;;;;;1999.90;999.90;;;3.50;99.90;;;;;;5033558;28;20043;-80
2024/01/21 11:01:48;;;;;;;1999.90;999.90;;;4.40;99.90;;;;;;5049304;28;20486;-79
2024/01/21 11:04:14;;;;;;;1999.90;999.90;;;4.40;99.90;;;;;;5016706;28;20049;-79
2024/01/21 11:06:51;;;;;;;1999.90;999.90;;;3.60;99.90;;;;;;5022579;28;20037;-79
2024/01/21 11:09:25;;;;;;;1999.90;999.90;;;3.60;99.90;;;;;;5027372;28;20095;-78
2024/01/21 11:11:52;;;;;;;1999.90;999.90;;;3.60;99.90;;;;;;5040111;28;20056;-78
2024/01/21 11:14:34;;;;;;;1999.90;999.90;;;4.30;99.90;;;;;;5035487;28;20092;-80
2024/01/21 11:17:06;;;;;;;1999.90;999.90;;;3.70;99.90;;;;;;5025222;28;20179;-79
2024/01/21 11:19:47;;;;;;;1999.90;999.90;;;3.70;99.90;;;;;;5023389;28;20040;-78
2024/01/21 11:22:13;;;;;;;1999.90;999.90;;;3.80;99.90;;;;;;5045030;28;20044;-83
2024/01/21 11:24:40;;;;;;;1999.90;999.90;;;4.90;99.90;;;;;;5026419;28;20402;-79
2024/01/21 11:27:18;;;;;;;1999.90;999.90;;;3.80;99.90;;;;;;5031216;28;20034;-80
2024/01/21 11:29:44;;;;;;;1999.90;999.90;;;3.80;99.90;;;;;;5047096;28;20057;-78
2024/01/21 11:32:11;;;;;;;1999.90;999.90;;;4.50;99.90;;;;;;5045518;28;20065;-78
2024/01/21 11:34:40;;;;;;;1999.90;999.90;;;3.90;99.90;;;;;;5045461;28;20045;-79
2024/01/21 11:37:13;;;;;;;1999.90;999.90;;;3.90;99.90;;;;;;5025996;28;20041;-80
2024/01/21 11:39:40;;;;;;;1999.90;999.90;;;4.80;99.90;;;;;;5026481;28;20189;-80
2024/01/21 11:42:07;;;;;;;1999.90;999.90;;;3.90;99.90;;;;;;5042257;28;20124;-78
2024/01/21 11:44:34;;;;;;;1999.90;999.90;;;3.90;99.90;;;;;;5047176;28;20041;-80
2024/01/21 11:47:04;;;;;;;1999.90;999.90;;;3.90;99.90;;;;;;5027318;28;20037;-78
2024/01/21 11:49:35;;;;;;;1999.90;999.90;;;3.90;99.90;;;;;;5047432;28;20055;-80
2024/01/21 11:52:05;;;;;;;1999.90;999.90;;;3.90;99.90;;;;;;5031203;28;20028;-78
2024/01/21 11:54:39;;;;;;;1999.90;999.90;;;3.90;99.90;;;;;;5025744;28;20033;-78
2024/01/21 11:57:06;;;;;;;1999.90;999.90;;;3.90;99.90;;;;;;5023814;28;20418;-79
2024/01/21 11:59:32;;;;;;;1999.90;999.90;;;4.00;99.90;;;;;;5034565;28;20119;-80
2024/01/21 12:01:58;;;;;;;1999.90;999.90;;;4.50;99.90;;;;;;5026893;28;20056;-78
2024/01/21 12:04:28;;;;;;;1999.90;999.90;;;4.00;99.90;;;;;;5030906;28;20037;-78